createdAt,value
2022-10-09T00:05:23.502Z,3.23
2022-10-09T00:15:00.107Z,3.29
2022-10-09T00:24:36.478Z,3.12
2022-10-09T00:34:13.669Z,3.6
2022-10-09T00:43:51.386Z,4.26
2022-10-09T00:53:29.204Z,4.61
2022-10-09T01:03:06.642Z,4.71
2022-10-09T01:12:43.811Z,4.66
2022-10-09T01:22:20.812Z,4.54
2022-10-09T01:31:57.390Z,4.16
2022-10-09T01:41:33.491Z,3.61
2022-10-09T01:51:10.173Z,3.46
2022-10-09T02:00:47.432Z,3.81
2022-10-09T02:10:24.790Z,4.28
2022-10-09T02:20:01.729Z,4.41
2022-10-09T02:29:38.750Z,4.55
2022-10-09T02:39:15.408Z,4.33
2022-10-09T02:48:52.500Z,4.37
2022-10-09T02:58:29.418Z,4.19
2022-10-09T03:08:06.073Z,3.89
2022-10-09T03:17:42.421Z,3.67
2022-10-09T03:27:19.307Z,3.67
2022-10-09T03:36:56.360Z,3.86
2022-10-09T03:46:33.281Z,3.93
2022-10-09T03:56:10.457Z,4.01
2022-10-09T04:05:44.904Z,4.08
2022-10-09T04:15:21.701Z,3.92
2022-10-09T04:24:58.782Z,3.85
2022-10-09T04:34:35.647Z,3.87
2022-10-09T04:53:49.133Z,3.9
2022-10-09T05:03:26.226Z,3.88
2022-10-09T05:13:03.049Z,3.95
2022-10-09T05:22:40.144Z,3.8
2022-10-09T05:32:16.638Z,3.77
2022-10-09T05:41:53.150Z,3.65
2022-10-09T05:51:29.732Z,3.6
2022-10-09T06:01:07.024Z,3.57
2022-10-09T06:10:42.577Z,3.74
2022-10-09T06:20:19.243Z,3.81
2022-10-09T06:29:56.756Z,3.94
2022-10-09T06:39:33.770Z,3.77
2022-10-09T06:49:10.693Z,3.67
2022-10-09T06:58:48.208Z,3.93
2022-10-09T07:08:25.853Z,4.17
2022-10-09T07:18:03.325Z,4.29
2022-10-09T07:27:40.418Z,4.49
2022-10-09T07:37:17.386Z,4.5
2022-10-09T07:46:54.891Z,5.07
2022-10-09T07:56:33.279Z,5.37
2022-10-09T08:06:10.694Z,5.73
2022-10-09T08:15:48.148Z,6.13
2022-10-09T08:25:26.815Z,6.22
2022-10-09T08:35:04.699Z,6.87
2022-10-09T08:44:42.731Z,7.17
2022-10-09T08:54:19.746Z,7.05
2022-10-09T09:03:53.663Z,7.08
2022-10-09T09:13:30.749Z,7.53
2022-10-09T09:23:08.298Z,8.03
2022-10-09T09:32:45.713Z,8.53
2022-10-09T09:42:22.919Z,9.19
2022-10-09T09:52:00.408Z,9.72
2022-10-09T10:01:38.833Z,10.37
2022-10-09T10:11:17.355Z,11.01
2022-10-09T10:20:56.266Z,11.79
2022-10-09T10:31:00.933Z,14.43
2022-10-09T10:40:57.519Z,15.67
2022-10-09T10:50:43.677Z,17.03
2022-10-09T11:00:27.271Z,17.46
2022-10-09T11:10:07.584Z,18.64
2022-10-09T11:19:48.018Z,18.69
2022-10-09T11:29:27.866Z,19.21
2022-10-09T11:39:07.529Z,19.97
2022-10-09T11:48:47.289Z,20.22
2022-10-09T11:58:25.181Z,20.09
2022-10-09T12:08:05.406Z,20.9
2022-10-09T12:17:42.655Z,21.34
2022-10-09T12:27:22.348Z,20.45
2022-10-09T12:37:00.238Z,20.86
2022-10-09T12:46:38.075Z,19.39
2022-10-09T12:56:16.382Z,19.52
2022-10-09T13:05:55.775Z,20.86
2022-10-09T13:15:34.835Z,21.74
2022-10-09T13:25:13.585Z,21.9
2022-10-09T13:34:51.591Z,20.96
2022-10-09T13:44:29.258Z,22.25
2022-10-09T13:54:07.072Z,21.94
2022-10-09T14:03:44.252Z,21.94
2022-10-09T14:13:21.313Z,22.21
2022-10-09T14:22:58.663Z,22.91
2022-10-09T14:32:38.013Z,22
2022-10-09T14:42:17.377Z,20.12
2022-10-09T14:51:46.653Z,19.59
2022-10-09T15:01:09.357Z,20.16
2022-10-09T15:10:44.481Z,18.13
2022-10-09T15:20:11.503Z,18.14
2022-10-09T15:29:37.712Z,16.17
2022-10-09T15:39:10.210Z,15.52
2022-10-09T15:48:44.597Z,14.92
2022-10-09T15:58:18.696Z,14.17
2022-10-09T16:07:55.858Z,13.48
2022-10-09T16:17:30.241Z,12.97
2022-10-09T16:27:06.160Z,12.68
2022-10-09T16:36:42.158Z,12.06
2022-10-09T16:46:18.448Z,11.82
2022-10-09T16:55:54.488Z,11.35
2022-10-09T17:05:30.805Z,10.89
2022-10-09T17:24:42.764Z,9.81
2022-10-09T17:34:18.731Z,9.37
2022-10-09T17:43:56.447Z,9.02
2022-10-09T17:53:31.360Z,8.74
2022-10-09T18:03:07.665Z,8.57
2022-10-09T18:12:43.795Z,8
2022-10-09T18:31:56.970Z,7.44
2022-10-09T18:41:33.539Z,7.4
2022-10-09T18:51:09.834Z,7.01
2022-10-09T19:00:46.179Z,6.85
2022-10-09T19:10:22.600Z,6.53
2022-10-09T19:19:59.190Z,6.61
2022-10-09T19:29:34.806Z,6.49
2022-10-09T19:39:11.740Z,6.72
2022-10-09T19:48:48.407Z,7.13
2022-10-09T19:58:25.209Z,7.11
2022-10-09T20:08:01.648Z,6.69
2022-10-09T20:17:38.190Z,6.55
2022-10-09T20:27:15.254Z,6.87
2022-10-09T20:36:52.114Z,6.7
2022-10-09T20:46:28.918Z,6.66
2022-10-09T20:56:06.015Z,6.53
2022-10-09T21:15:19.537Z,5.66
2022-10-09T21:24:55.784Z,5.22
2022-10-09T21:34:31.919Z,4.92
2022-10-09T21:44:08.702Z,4.95
2022-10-09T21:53:45.294Z,4.64
2022-10-09T22:12:58.113Z,4.45
2022-10-09T22:22:35.125Z,4.37
2022-10-09T22:32:11.850Z,4.15
2022-10-09T22:41:48.341Z,4.14
2022-10-09T22:51:25.437Z,3.96
2022-10-09T23:01:01.899Z,3.89
2022-10-09T23:10:38.668Z,3.78
2022-10-09T23:29:51.988Z,3.57
2022-10-09T23:39:28.895Z,3.36
2022-10-09T23:49:07.168Z,3.36
